Time;durP1;ratioP1;P1;durP2;ratioP2;P2;SDS_P1;SDS_P2;PMS_P1;PMS_P2;Temp;Humidity;BMP_temperature;BMP_pressure;BME280_temperature;BME280_humidity;BME280_pressure;Samples;Min_cycle;Max_cycle;Signal;HPM_P1;HPM_P2
2023/10/30 00:01:37;;;;;;;0.45;0.45;;;;;;;10.86;94.52;97508.75;4971920;28;20126;-77
2023/10/30 00:04:03;;;;;;;0.50;0.50;;;;;;;10.84;94.24;97511.41;4969520;28;20092;-77
2023/10/30 00:06:29;;;;;;;0.50;0.50;;;;;;;10.89;94.58;97517.69;4968695;28;20073;-77
2023/10/30 00:08:54;;;;;;;0.40;0.40;;;;;;;10.83;94.53;97522.97;4962147;28;20070;-77
2023/10/30 00:11:20;;;;;;;0.47;0.47;;;;;;;10.92;94.32;97512.38;4970002;28;20038;-77
2023/10/30 00:13:45;;;;;;;0.50;0.50;;;;;;;10.94;94.22;97521.28;4969369;28;20038;-77
2023/10/30 00:16:11;;;;;;;0.40;0.40;;;;;;;10.98;94.22;97538.22;4973167;28;20035;-77
2023/10/30 00:18:38;;;;;;;0.50;0.50;;;;;;;10.99;94.41;97532.88;4967969;28;20026;-76
2023/10/30 00:21:05;;;;;;;0.40;0.40;;;;;;;10.99;94.21;97540.91;4969852;28;20046;-77
2023/10/30 00:23:31;;;;;;;0.50;0.50;;;;;;;11.02;94.25;97529.38;4970633;28;20490;-77
2023/10/30 00:25:57;;;;;;;0.50;0.50;;;;;;;10.97;94.16;97518.66;4968214;28;20039;-77
2023/10/30 00:28:23;;;;;;;0.50;0.50;;;;;;;10.95;94.20;97512.38;4966417;28;20043;-77
2023/10/30 00:30:48;;;;;;;0.50;0.50;;;;;;;10.93;94.16;97519.50;4979234;28;20050;-77
2023/10/30 00:33:14;;;;;;;0.50;0.50;;;;;;;11.00;94.39;97531.09;4968700;28;20035;-77
2023/10/30 00:35:39;;;;;;;0.50;0.50;;;;;;;10.98;94.13;97538.22;4983487;28;20034;-77
2023/10/30 00:38:05;;;;;;;0.50;0.50;;;;;;;10.99;94.54;97519.53;4964026;28;20102;-77
2023/10/30 00:40:31;;;;;;;0.50;0.50;;;;;;;10.95;94.02;97524.84;4967256;28;20041;-77
2023/10/30 00:42:56;;;;;;;0.50;0.50;;;;;;;11.12;93.95;97533.88;4973972;28;20035;-77
2023/10/30 00:45:23;;;;;;;0.52;0.52;;;;;;;11.01;94.02;97543.56;4974335;28;20039;-76
2023/10/30 00:47:48;;;;;;;0.50;0.50;;;;;;;10.98;94.05;97522.22;4954777;28;20514;-76
2023/10/30 00:50:14;;;;;;;0.45;0.45;;;;;;;10.92;93.91;97539.06;4971480;28;20885;-76
2023/10/30 00:52:39;;;;;;;0.40;0.40;;;;;;;10.91;94.21;97547.94;4971432;28;20081;-77
2023/10/30 00:55:05;;;;;;;0.50;0.50;;;;;;;10.92;94.06;97555.09;4989063;28;20053;-77
2023/10/30 00:57:30;;;;;;;0.40;0.40;;;;;;;10.92;94.22;97563.09;4971507;28;20081;-76
2023/10/30 00:59:56;;;;;;;0.50;0.50;;;;;;;10.93;94.34;97564.88;4974346;28;20034;-77
2023/10/30 01:02:21;;;;;;;0.40;0.40;;;;;;;11.05;94.09;97553.38;4974642;28;20038;-77
2023/10/30 01:04:47;;;;;;;0.40;0.40;;;;;;;10.98;94.53;97555.13;4972304;28;20049;-77
2023/10/30 01:07:12;;;;;;;0.50;0.50;;;;;;;10.93;94.22;97564.88;4971805;28;20544;-78
2023/10/30 01:09:38;;;;;;;0.50;0.50;;;;;;;10.95;94.35;97565.75;4971507;28;20043;-77
2023/10/30 01:12:03;;;;;;;0.40;0.40;;;;;;;11.00;94.26;97569.38;4972439;28;20050;-77
2023/10/30 01:14:29;;;;;;;0.50;0.50;;;;;;;10.95;94.43;97568.44;4973666;28;20050;-77
2023/10/30 01:16:55;;;;;;;0.50;0.50;;;;;;;10.95;94.28;97578.22;4966666;28;20405;-77
2023/10/30 01:19:21;;;;;;;0.40;0.40;;;;;;;11.04;94.30;97584.53;4968481;28;20043;-77
2023/10/30 01:21:46;;;;;;;0.45;0.45;;;;;;;11.03;94.26;97580.06;4971015;28;20103;-77
2023/10/30 01:24:12;;;;;;;0.40;0.40;;;;;;;11.03;94.11;97579.19;4985690;28;20094;-77
2023/10/30 01:26:39;;;;;;;0.40;0.40;;;;;;;11.05;94.01;97580.09;4972654;28;20485;-76
2023/10/30 01:29:05;;;;;;;;;;;;;;;11.03;93.99;97577.41;4987446;28;20066;-77
2023/10/30 01:31:30;;;;;;;0.50;0.50;;;;;;;10.98;94.34;97576.47;4974789;28;19917;-77
2023/10/30 01:33:56;;;;;;;0.50;0.50;;;;;;;10.96;94.37;97570.22;4968380;28;20337;-77
2023/10/30 01:36:22;;;;;;;0.43;0.43;;;;;;;10.97;94.30;97557.75;4968439;28;20042;-76
2023/10/30 01:38:48;;;;;;;0.40;0.40;;;;;;;10.84;94.13;97566.56;4968075;28;20036;-76
2023/10/30 01:41:13;;;;;;;0.43;0.43;;;;;;;10.79;94.56;97571.84;4964550;28;20066;-76
2023/10/30 01:43:39;;;;;;;0.45;0.45;;;;;;;10.94;94.81;97577.31;4972521;28;20442;-79
2023/10/30 01:46:07;;;;;;;0.50;0.50;;;;;;;10.96;94.87;97580.00;4970872;28;20042;-78
2023/10/30 01:48:34;;;;;;;0.50;0.50;;;;;;;10.97;94.33;97580.03;4970650;28;20043;-78
2023/10/30 01:51:01;;;;;;;0.50;0.50;;;;;;;10.99;94.85;97586.25;4969586;28;20286;-79
2023/10/30 01:53:29;;;;;;;0.50;0.50;;;;;;;10.99;94.50;97578.25;4970256;28;20383;-79
2023/10/30 01:55:55;;;;;;;0.40;0.40;;;;;;;10.98;94.43;97580.91;4970421;28;20137;-78
2023/10/30 01:58:22;;;;;;;0.40;0.40;;;;;;;10.99;94.44;97582.72;4972319;28;20461;-78
2023/10/30 02:00:50;;;;;;;0.40;0.40;;;;;;;10.94;94.39;97573.75;4990021;28;20539;-76
2023/10/30 02:03:16;;;;;;;0.50;0.50;;;;;;;10.94;94.51;97577.31;4971532;28;20396;-79
2023/10/30 02:05:42;;;;;;;0.40;0.40;;;;;;;11.00;94.85;97581.81;4971884;28;20096;-78
2023/10/30 02:08:09;;;;;;;0.40;0.40;;;;;;;11.03;94.58;97581.84;4970126;28;20452;-78
2023/10/30 02:10:35;;;;;;;0.50;0.50;;;;;;;10.99;94.42;97574.69;4977304;28;20150;-78
2023/10/30 02:13:07;;;;;;;0.40;0.40;;;;;;;10.98;94.53;97576.47;4980514;28;20053;-78
2023/10/30 02:15:33;;;;;;;0.40;0.40;;;;;;;10.99;94.79;97572.91;4975286;28;20070;-79
2023/10/30 02:17:58;;;;;;;0.40;0.40;;;;;;;10.93;94.70;97571.97;4977091;28;20432;-76
2023/10/30 02:20:26;;;;;;;0.40;0.40;;;;;;;10.91;94.59;97571.06;4976072;28;20130;-79
2023/10/30 02:22:51;;;;;;;0.50;0.50;;;;;;;10.85;94.66;97561.22;4971044;28;20117;-77
2023/10/30 02:25:24;;;;;;;0.40;0.40;;;;;;;10.84;94.89;97555.88;4971719;28;20848;-78
2023/10/30 02:27:50;;;;;;;0.40;0.40;;;;;;;10.78;94.82;97556.72;4964425;28;20470;-78
2023/10/30 02:30:16;;;;;;;0.50;0.50;;;;;;;10.75;94.96;97556.69;4969453;28;20047;-78
2023/10/30 02:32:44;;;;;;;0.50;0.50;;;;;;;10.71;94.97;97550.44;4972448;28;20042;-78
2023/10/30 02:35:16;;;;;;;0.40;0.40;;;;;;;10.59;95.12;97541.41;4985398;28;20082;-78
2023/10/30 02:37:45;;;;;;;0.45;0.45;;;;;;;10.49;95.33;97544.00;4984789;28;20046;-78
2023/10/30 02:40:11;;;;;;;0.40;0.40;;;;;;;10.27;95.53;97537.53;4966225;28;20045;-77
2023/10/30 02:42:38;;;;;;;0.55;0.55;;;;;;;10.11;95.57;97538.22;4970519;28;20042;-77
2023/10/30 02:45:04;;;;;;;0.50;0.50;;;;;;;10.00;95.53;97546.06;4970216;28;20058;-77
2023/10/30 02:47:34;;;;;;;0.40;0.40;;;;;;;10.06;95.83;97542.59;4971448;28;20974;-77
2023/10/30 02:50:01;;;;;;;0.50;0.50;;;;;;;10.12;96.08;97547.09;4970505;28;20054;-77
2023/10/30 02:52:28;;;;;;;;;;;;;;;10.15;96.22;97552.44;4968757;28;20041;-78
2023/10/30 02:54:53;;;;;;;0.50;0.50;;;;;;;10.22;96.14;97547.22;4968755;28;19917;-77
2023/10/30 02:57:18;;;;;;;0.50;0.50;;;;;;;10.24;95.78;97539.25;4967142;28;20070;-77
2023/10/30 02:59:44;;;;;;;0.50;0.50;;;;;;;10.19;95.79;97548.94;4968329;28;20039;-78
2023/10/30 03:02:09;;;;;;;0.50;0.50;;;;;;;10.14;95.68;97543.56;4967892;28;20484;-77
2023/10/30 03:04:35;;;;;;;0.50;0.50;;;;;;;10.03;95.10;97537.22;4970929;28;20054;-77
2023/10/30 03:07:01;;;;;;;0.50;0.50;;;;;;;9.93;95.21;97530.00;4968238;28;20047;-77
2023/10/30 03:09:28;;;;;;;0.60;0.60;;;;;;;9.78;95.31;97522.72;4983987;28;20450;-78
2023/10/30 03:11:54;;;;;;;0.50;0.50;;;;;;;9.77;95.26;97520.91;4968986;28;21094;-78
2023/10/30 03:14:19;;;;;;;0.60;0.60;;;;;;;9.73;95.19;97517.31;4984517;28;20126;-77
2023/10/30 03:16:45;;;;;;;0.60;0.60;;;;;;;9.81;95.74;97522.72;4972305;28;20034;-77
2023/10/30 03:19:10;;;;;;;0.60;0.60;;;;;;;9.99;95.63;97527.41;4969405;28;20393;-77
2023/10/30 03:21:36;;;;;;;0.60;0.60;;;;;;;9.95;95.27;97531.78;4965810;28;20049;-77
2023/10/30 03:24:02;;;;;;;0.50;0.50;;;;;;;9.94;95.67;97522.00;4969796;28;20126;-78
2023/10/30 03:26:29;;;;;;;0.60;0.60;;;;;;;9.99;95.74;97528.28;4972710;28;20519;-77
2023/10/30 03:28:55;;;;;;;0.60;0.60;;;;;;;10.03;95.69;97529.22;4966173;28;20499;-77
2023/10/30 03:31:20;;;;;;;0.50;0.50;;;;;;;10.19;95.50;97527.63;4968397;28;20050;-77
2023/10/30 03:33:47;;;;;;;0.60;0.60;;;;;;;10.16;95.37;97533.84;4966227;28;20105;-77
2023/10/30 03:36:23;;;;;;;0.57;0.57;;;;;;;10.19;95.17;97531.19;4972018;28;20087;-77
2023/10/30 03:38:50;;;;;;;0.50;0.50;;;;;;;10.13;95.48;97530.22;4971718;28;20042;-77
2023/10/30 03:41:17;;;;;;;0.50;0.50;;;;;;;10.13;95.12;97522.22;4972055;28;20038;-77
2023/10/30 03:43:46;;;;;;;0.50;0.50;;;;;;;10.09;95.08;97525.72;4969160;28;20751;-77
2023/10/30 03:46:11;;;;;;;0.50;0.50;;;;;;;10.13;94.97;97520.47;4983408;28;20613;-77
2023/10/30 03:48:37;;;;;;;0.50;0.50;;;;;;;10.03;95.47;97498.13;4968479;28;20034;-77
2023/10/30 03:51:04;;;;;;;0.60;0.60;;;;;;;10.03;95.38;97503.47;4960822;28;20400;-77
2023/10/30 03:53:29;;;;;;;0.60;0.60;;;;;;;9.96;95.34;97512.25;4966782;28;20062;-77
2023/10/30 03:55:55;;;;;;;0.50;0.50;;;;;;;9.79;95.35;97505.84;4966501;28;20647;-77
2023/10/30 03:58:21;;;;;;;0.50;0.50;;;;;;;9.64;95.25;97506.53;4967297;28;20034;-77
2023/10/30 04:00:46;;;;;;;0.50;0.50;;;;;;;9.69;95.19;97507.50;4967335;28;20096;-77
2023/10/30 04:03:11;;;;;;;0.50;0.50;;;;;;;9.66;95.62;97509.22;4967759;28;20031;-77
2023/10/30 04:05:38;;;;;;;0.50;0.50;;;;;;;9.67;95.64;97503.91;4969023;28;20329;-77
2023/10/30 04:08:04;;;;;;;0.50;0.50;;;;;;;9.68;95.31;97486.19;4969296;28;20049;-76
2023/10/30 04:10:29;;;;;;;0.50;0.50;;;;;;;9.63;95.48;97479.88;4966400;28;20280;-77
2023/10/30 04:12:55;;;;;;;0.50;0.50;;;;;;;9.46;95.33;97485.88;4969842;28;20092;-77
2023/10/30 04:15:20;;;;;;;0.60;0.60;;;;;;;9.56;95.71;97492.22;4950926;28;21327;-77
2023/10/30 04:17:46;;;;;;;0.60;0.60;;;;;;;9.75;95.77;97477.38;4965780;28;20035;-77
2023/10/30 04:20:11;;;;;;;0.50;0.50;;;;;;;9.61;95.92;97485.19;4970026;28;20041;-77
2023/10/30 04:22:37;;;;;;;0.50;0.50;;;;;;;9.47;95.84;97471.69;4972930;28;20034;-77
2023/10/30 04:25:06;;;;;;;0.50;0.50;;;;;;;9.34;96.10;97476.84;4968503;28;20042;-77
2023/10/30 04:27:31;;;;;;;0.50;0.50;;;;;;;9.31;95.86;97480.38;4967464;28;20047;-77
2023/10/30 04:29:57;;;;;;;0.50;0.50;;;;;;;9.27;96.08;97481.19;4969000;28;20046;-77
2023/10/30 04:32:22;;;;;;;0.50;0.50;;;;;;;9.33;95.67;97473.28;4968235;28;20045;-77
2023/10/30 04:34:48;;;;;;;0.60;0.60;;;;;;;9.31;95.87;97468.81;4966250;28;20042;-77
2023/10/30 04:37:13;;;;;;;0.50;0.50;;;;;;;9.18;96.02;97471.31;4980997;28;20540;-77
2023/10/30 04:39:39;;;;;;;0.60;0.60;;;;;;;9.24;95.99;97470.50;4969035;28;20043;-77
2023/10/30 04:42:04;;;;;;;0.50;0.50;;;;;;;9.35;96.02;97471.56;4970501;28;20047;-77
2023/10/30 04:44:30;;;;;;;0.60;0.60;;;;;;;9.33;95.72;97478.59;4970181;28;20093;-77
2023/10/30 04:46:55;;;;;;;0.60;0.60;;;;;;;9.15;95.88;97470.34;4965907;28;20055;-76
2023/10/30 04:49:21;;;;;;;0.60;0.60;;;;;;;8.98;95.21;97471.00;4967623;28;20477;-77
2023/10/30 04:51:46;;;;;;;0.50;0.50;;;;;;;9.02;95.50;97465.75;4965431;28;20051;-77
2023/10/30 04:54:12;;;;;;;0.50;0.50;;;;;;;8.93;95.32;97458.53;4966582;28;20482;-77
2023/10/30 04:56:37;;;;;;;0.60;0.60;;;;;;;8.77;95.93;97459.13;4968191;28;20421;-77
2023/10/30 04:59:03;;;;;;;0.60;0.60;;;;;;;8.60;95.85;97457.13;4965596;28;20051;-77
2023/10/30 05:01:28;;;;;;;0.50;0.50;;;;;;;8.58;96.23;97453.56;4963966;28;20038;-77
2023/10/30 05:03:54;;;;;;;0.60;0.60;;;;;;;8.44;96.34;97450.66;4967367;28;20047;-77
2023/10/30 05:06:19;;;;;;;0.60;0.60;;;;;;;8.54;96.36;97453.47;4969814;28;20413;-77
2023/10/30 05:08:45;;;;;;;0.60;0.60;;;;;;;8.56;96.21;97459.69;4981383;28;20113;-77
2023/10/30 05:11:10;;;;;;;0.60;0.60;;;;;;;8.64;96.28;97452.75;4967290;28;20042;-77
2023/10/30 05:13:36;;;;;;;0.52;0.52;;;;;;;8.52;96.44;97455.19;4967219;28;20046;-77
2023/10/30 05:16:01;;;;;;;0.60;0.60;;;;;;;8.58;96.16;97460.63;4966422;28;20043;-77
2023/10/30 05:18:30;;;;;;;0.60;0.60;;;;;;;8.59;96.27;97467.75;4966341;28;20050;-77
2023/10/30 05:20:55;;;;;;;0.52;0.52;;;;;;;8.57;96.08;97475.66;4968256;28;20471;-77
2023/10/30 05:23:21;;;;;;;0.50;0.50;;;;;;;8.55;96.21;97479.19;4965243;28;20421;-77
2023/10/30 05:25:46;;;;;;;0.55;0.55;;;;;;;8.56;96.18;97475.66;4964310;28;20041;-77
2023/10/30 05:28:12;;;;;;;0.60;0.60;;;;;;;8.57;96.08;97473.00;4973268;28;20040;-77
2023/10/30 05:30:38;;;;;;;0.60;0.60;;;;;;;8.76;96.08;97489.28;4974622;28;20485;-77
2023/10/30 05:33:04;;;;;;;0.60;0.60;;;;;;;8.78;96.27;97471.59;4972350;28;20121;-77
2023/10/30 05:35:30;;;;;;;0.50;0.50;;;;;;;8.64;96.20;97469.59;4971779;28;20535;-77
2023/10/30 05:37:56;;;;;;;0.50;0.50;;;;;;;8.58;95.88;97456.22;4972058;28;20034;-77
2023/10/30 05:40:22;;;;;;;0.60;0.60;;;;;;;8.47;95.95;97452.47;4972135;28;20041;-77
2023/10/30 05:42:48;;;;;;;0.60;0.60;;;;;;;8.21;96.18;97449.34;4987508;28;20043;-77
2023/10/30 05:45:13;;;;;;;0.60;0.60;;;;;;;8.02;96.09;97450.75;4972701;28;20038;-77
2023/10/30 05:47:39;;;;;;;0.60;0.60;;;;;;;8.03;96.30;97441.03;4972810;28;20532;-77
2023/10/30 05:50:05;;;;;;;0.60;0.60;;;;;;;7.86;96.23;97452.25;4973180;28;20035;-77
2023/10/30 05:52:31;;;;;;;0.57;0.57;;;;;;;7.73;96.50;97458.19;4973255;28;20042;-78
2023/10/30 05:54:57;;;;;;;0.60;0.60;;;;;;;7.84;97.08;97445.09;4969426;28;20175;-77
2023/10/30 05:57:23;;;;;;;0.60;0.60;;;;;;;7.53;97.16;97449.81;4974396;28;20137;-77
2023/10/30 05:59:48;;;;;;;0.50;0.50;;;;;;;7.67;97.42;97439.47;4972210;28;20578;-77
2023/10/30 06:02:15;;;;;;;0.60;0.60;;;;;;;7.64;97.04;97442.06;4970229;28;20074;-77
2023/10/30 06:04:40;;;;;;;0.70;0.70;;;;;;;7.49;97.24;97437.34;4968541;28;20053;-77
2023/10/30 06:07:06;;;;;;;0.60;0.60;;;;;;;7.39;97.36;97430.97;4970663;28;20046;-77
2023/10/30 06:09:31;;;;;;;0.50;0.50;;;;;;;7.42;97.00;97431.00;4967686;28;20043;-77
2023/10/30 06:11:57;;;;;;;0.60;0.60;;;;;;;7.58;97.27;97429.56;4969607;28;20045;-77
2023/10/30 06:14:22;;;;;;;0.70;0.70;;;;;;;7.30;97.01;97435.19;4968534;28;20049;-77
2023/10/30 06:16:48;;;;;;;0.63;0.63;;;;;;;7.29;97.28;97429.00;4967876;28;20065;-77
2023/10/30 06:19:13;;;;;;;0.60;0.60;;;;;;;7.27;97.39;97420.09;4970283;28;20041;-78
2023/10/30 06:21:39;;;;;;;0.60;0.60;;;;;;;7.47;97.68;97417.84;4970386;28;20046;-78
2023/10/30 06:24:06;;;;;;;0.70;0.70;;;;;;;7.30;97.71;97420.16;4972835;28;20034;-77
2023/10/30 06:26:32;;;;;;;;;;;;;;;7.30;97.58;97424.56;4970615;28;20045;-79
2023/10/30 06:28:57;;;;;;;0.70;0.70;;;;;;;7.29;97.59;97431.63;4973414;28;19914;-79
2023/10/30 06:31:23;;;;;;;0.63;0.63;;;;;;;7.35;97.61;97431.75;4970117;28;20037;-79
2023/10/30 06:33:48;;;;;;;0.63;0.63;;;;;;;7.51;97.24;97440.91;4973917;28;20046;-79
2023/10/30 06:36:14;;;;;;;0.60;0.60;;;;;;;7.54;97.60;97426.84;4972936;28;20459;-79
2023/10/30 06:38:40;;;;;;;0.65;0.65;;;;;;;7.40;97.29;97432.75;4973290;28;20039;-79
2023/10/30 06:41:06;;;;;;;0.60;0.60;;;;;;;7.19;97.35;97432.31;4974233;28;20047;-79
2023/10/30 06:43:32;;;;;;;0.60;0.60;;;;;;;7.13;97.48;97426.84;4971805;28;20042;-79
2023/10/30 06:46:02;;;;;;;0.70;0.70;;;;;;;7.32;97.30;97436.09;4972749;28;20068;-79
2023/10/30 06:48:28;;;;;;;0.60;0.60;;;;;;;7.33;96.78;97428.19;4988251;28;20117;-79
2023/10/30 06:50:54;;;;;;;0.70;0.70;;;;;;;7.35;97.20;97420.25;4970470;28;20042;-78
2023/10/30 06:53:20;;;;;;;0.70;0.70;;;;;;;7.39;96.86;97425.66;4964103;28;20072;-78
2023/10/30 06:55:45;;;;;;;0.70;0.70;;;;;;;7.69;96.95;97424.47;4975969;28;20061;-78
2023/10/30 06:58:11;;;;;;;0.70;0.70;;;;;;;7.69;95.87;97430.66;4977987;28;20404;-78
2023/10/30 07:00:37;;;;;;;0.60;0.60;;;;;;;7.68;95.49;97435.97;4986923;28;20444;-78
2023/10/30 07:03:02;;;;;;;0.60;0.60;;;;;;;7.70;95.84;97427.13;4986141;28;20042;-79
2023/10/30 07:05:28;;;;;;;0.60;0.60;;;;;;;7.63;95.56;97430.56;4979615;28;20046;-79
2023/10/30 07:07:54;;;;;;;0.60;0.60;;;;;;;7.73;94.97;97436.94;4985666;28;20039;-78
2023/10/30 07:10:19;;;;;;;0.60;0.60;;;;;;;8.07;94.95;97425.19;4976629;28;20224;-79
2023/10/30 07:12:45;;;;;;;0.60;0.60;;;;;;;8.43;94.11;97422.31;4976489;28;20057;-78
2023/10/30 07:15:10;;;;;;;0.60;0.60;;;;;;;8.74;93.61;97436.06;4979913;28;20105;-78
2023/10/30 07:17:36;;;;;;;0.70;0.70;;;;;;;8.87;92.59;97439.81;4975684;28;20378;-78
2023/10/30 07:20:03;;;;;;;0.60;0.60;;;;;;;8.97;92.22;97447.94;4973073;28;20142;-78
2023/10/30 07:22:30;;;;;;;0.68;0.68;;;;;;;9.02;92.24;97449.78;4975885;28;20054;-78
2023/10/30 07:24:58;;;;;;;0.70;0.70;;;;;;;9.27;91.57;97449.25;4976213;28;20046;-79
2023/10/30 07:27:23;;;;;;;0.70;0.70;;;;;;;9.73;90.48;97444.53;4985695;28;20441;-79
2023/10/30 07:29:49;;;;;;;0.60;0.60;;;;;;;10.42;88.00;97450.59;4976678;28;20527;-79
2023/10/30 07:32:14;;;;;;;0.60;0.60;;;;;;;10.53;86.93;97444.44;4972768;28;20066;-78
2023/10/30 07:34:41;;;;;;;0.60;0.60;;;;;;;11.34;84.83;97452.13;4972325;28;20039;-78
2023/10/30 07:37:06;;;;;;;0.60;0.60;;;;;;;11.61;83.27;97445.16;4970982;28;20034;-78
2023/10/30 07:39:32;;;;;;;0.45;0.45;;;;;;;11.49;83.46;97438.84;4975100;28;20419;-78
2023/10/30 07:41:57;;;;;;;0.50;0.50;;;;;;;11.74;83.49;97441.66;4968948;28;20405;-79
2023/10/30 07:44:23;;;;;;;0.40;0.40;;;;;;;11.56;84.27;97435.34;4971815;28;20031;-79
2023/10/30 07:46:49;;;;;;;0.40;0.40;;;;;;;11.92;84.10;97439.06;4973072;28;20046;-78
2023/10/30 07:49:14;;;;;;;0.40;0.40;;;;;;;12.50;80.95;97427.56;4972777;28;20037;-78
2023/10/30 07:51:40;;;;;;;0.40;0.40;;;;;;;13.08;77.79;97428.47;4972894;28;20053;-78
2023/10/30 07:54:06;;;;;;;0.40;0.40;;;;;;;12.49;79.51;97424.00;4969455;28;20065;-78
2023/10/30 07:56:31;;;;;;;0.40;0.40;;;;;;;13.01;80.99;97415.97;4971969;28;20409;-78
2023/10/30 07:58:57;;;;;;;0.30;0.30;;;;;;;13.10;79.31;97426.66;4973216;28;20045;-78
2023/10/30 08:01:24;;;;;;;0.30;0.30;;;;;;;13.66;77.77;97421.19;4969375;28;20034;-77
2023/10/30 08:03:49;;;;;;;0.30;0.30;;;;;;;13.63;78.86;97421.19;4970368;28;20515;-77
2023/10/30 08:06:15;;;;;;;0.30;0.30;;;;;;;13.93;77.41;97415.66;4969956;28;20038;-78
2023/10/30 08:08:40;;;;;;;0.30;0.30;;;;;;;14.29;76.66;97421.72;4969669;28;20042;-78
2023/10/30 08:11:06;;;;;;;0.30;0.30;;;;;;;14.66;76.14;97406.28;4967353;28;20046;-78
2023/10/30 08:13:31;;;;;;;0.20;0.20;;;;;;;14.62;74.33;97412.56;4970872;28;20460;-77
2023/10/30 08:16:00;;;;;;;0.28;0.28;;;;;;;14.57;75.56;97407.25;4970914;28;20128;-78
2023/10/30 08:18:25;;;;;;;0.20;0.20;;;;;;;14.58;75.96;97395.59;4969924;28;20093;-78
2023/10/30 08:20:51;;;;;;;0.20;0.20;;;;;;;14.73;75.25;97397.25;4972384;28;20113;-78
2023/10/30 08:23:17;;;;;;;0.30;0.30;;;;;;;14.67;75.20;97400.00;4972777;28;20492;-78
2023/10/30 08:25:43;;;;;;;0.28;0.28;;;;;;;14.57;75.42;97399.19;4972670;28;20126;-78
2023/10/30 08:28:08;;;;;;;0.30;0.30;;;;;;;15.24;75.21;97391.41;4973159;28;20634;-78
2023/10/30 08:30:34;;;;;;;0.20;0.20;;;;;;;15.61;72.25;97379.28;4971731;28;20046;-78
2023/10/30 08:33:03;;;;;;;0.20;0.20;;;;;;;15.95;70.99;97386.94;4970495;28;20054;-78
2023/10/30 08:35:29;;;;;;;0.20;0.20;;;;;;;16.59;69.78;97372.53;4973656;28;20062;-78
2023/10/30 08:37:55;;;;;;;0.20;0.20;;;;;;;17.18;65.87;97370.59;4971511;28;20130;-78
2023/10/30 08:40:20;;;;;;;0.15;0.15;;;;;;;17.19;69.16;97364.28;4985764;28;20118;-79
2023/10/30 08:42:46;;;;;;;0.20;0.20;;;;;;;17.87;64.67;97360.25;4976243;28;20035;-78
2023/10/30 08:45:12;;;;;;;0.20;0.20;;;;;;;17.55;65.51;97369.00;4975552;28;20046;-78
2023/10/30 08:47:38;;;;;;;0.20;0.20;;;;;;;17.85;64.09;97356.72;4977027;28;20455;-79
2023/10/30 08:50:06;;;;;;;0.20;0.20;;;;;;;18.26;61.30;97366.59;4991543;28;20130;-78
2023/10/30 08:52:31;;;;;;;0.20;0.20;;;;;;;17.65;63.00;97371.47;4972473;28;20097;-79
2023/10/30 08:54:57;;;;;;;0.20;0.20;;;;;;;17.98;60.59;97355.53;4966079;28;20039;-78
2023/10/30 08:57:22;;;;;;;0.20;0.20;;;;;;;18.27;60.33;97357.56;4968713;28;20882;-79
2023/10/30 08:59:48;;;;;;;0.10;0.10;;;;;;;18.42;59.02;97350.91;4969740;28;20867;-79
2023/10/30 09:02:13;;;;;;;0.10;0.10;;;;;;;18.42;57.82;97348.19;4969972;28;20142;-79
2023/10/30 09:04:39;;;;;;;0.20;0.20;;;;;;;18.24;58.83;97354.91;4977878;28;20066;-79
2023/10/30 09:07:05;;;;;;;0.20;0.20;;;;;;;18.14;59.31;97359.63;4974590;28;20142;-80
2023/10/30 09:09:30;;;;;;;0.20;0.20;;;;;;;18.44;58.39;97349.03;4974886;28;20053;-79
2023/10/30 09:11:55;;;;;;;0.20;0.20;;;;;;;18.46;58.28;97349.91;4976571;28;20031;-81
2023/10/30 09:14:21;;;;;;;0.20;0.20;;;;;;;18.70;56.85;97343.91;4974107;28;20035;-80
2023/10/30 09:16:46;;;;;;;0.20;0.20;;;;;;;19.22;55.19;97339.84;4975751;28;20031;-79
2023/10/30 09:19:12;;;;;;;0.10;0.10;;;;;;;18.82;56.02;97339.13;4975551;28;20125;-79
2023/10/30 09:21:37;;;;;;;0.20;0.20;;;;;;;19.29;55.56;97328.84;4976010;28;20124;-81
2023/10/30 09:24:03;;;;;;;0.20;0.20;;;;;;;19.28;55.66;97327.97;4972704;28;20035;-79
2023/10/30 09:26:29;;;;;;;0.20;0.20;;;;;;;19.46;55.44;97326.56;4974547;28;20027;-80
2023/10/30 09:28:55;;;;;;;0.20;0.20;;;;;;;19.55;54.77;97320.00;4972383;28;20089;-81
2023/10/30 09:31:20;;;;;;;0.20;0.20;;;;;;;19.73;54.53;97312.22;4973416;28;20046;-79
2023/10/30 09:33:47;;;;;;;0.20;0.20;;;;;;;20.27;52.81;97317.84;4976895;28;20150;-80
2023/10/30 09:36:13;;;;;;;0.20;0.20;;;;;;;19.36;55.66;97314.22;4974544;28;20094;-79
2023/10/30 09:38:38;;;;;;;0.20;0.20;;;;;;;19.01;57.17;97321.47;4979177;28;20046;-80
2023/10/30 09:41:05;;;;;;;0.20;0.20;;;;;;;18.93;56.44;97320.81;4980354;28;20501;-80
2023/10/30 09:43:33;;;;;;;0.20;0.20;;;;;;;19.10;57.03;97317.66;4996786;28;20054;-80
2023/10/30 09:46:01;;;;;;;0.10;0.10;;;;;;;19.03;57.53;97316.94;4979711;28;20104;-80
2023/10/30 09:48:28;;;;;;;0.10;0.10;;;;;;;18.79;57.47;97323.00;4994692;28;20097;-79
2023/10/30 09:50:54;;;;;;;0.20;0.20;;;;;;;19.18;56.22;97313.81;4976708;28;20105;-80
2023/10/30 09:53:20;;;;;;;0.10;0.10;;;;;;;19.24;56.54;97310.03;4976627;28;20124;-79
2023/10/30 09:55:48;;;;;;;0.10;0.10;;;;;;;18.84;58.29;97318.38;4976786;28;20118;-81
2023/10/30 09:58:15;;;;;;;0.20;0.20;;;;;;;18.42;58.70;97305.88;4986408;28;20042;-80
2023/10/30 10:00:45;;;;;;;0.20;0.20;;;;;;;17.51;61.75;97306.16;4975558;28;20092;-79
2023/10/30 10:03:10;;;;;;;0.20;0.20;;;;;;;17.28;61.43;97314.72;4987852;28;20051;-80
2023/10/30 10:05:36;;;;;;;0.20;0.20;;;;;;;16.89;63.25;97301.09;4977352;28;20093;-79
2023/10/30 10:08:01;;;;;;;0.20;0.20;;;;;;;17.30;63.81;97304.81;4979170;28;20066;-79
2023/10/30 10:10:27;;;;;;;0.20;0.20;;;;;;;16.63;64.98;97296.16;4980169;28;20046;-79
2023/10/30 10:12:55;;;;;;;0.20;0.20;;;;;;;16.28;64.49;97291.38;4979714;28;20031;-79
2023/10/30 10:15:21;;;;;;;0.20;0.20;;;;;;;16.07;64.92;97289.94;4976726;28;20528;-80
2023/10/30 10:17:48;;;;;;;0.20;0.20;;;;;;;16.06;64.75;97290.84;4973279;28;20082;-80
2023/10/30 10:20:13;;;;;;;;;;;;;;;16.90;63.13;97293.91;4975795;28;20038;-81
2023/10/30 10:22:39;;;;;;;0.20;0.20;;;;;;;16.73;62.78;97285.28;4975017;28;19924;-81
2023/10/30 10:25:11;;;;;;;0.20;0.20;;;;;;;17.55;61.67;97280.00;4974252;28;20051;-81
2023/10/30 10:27:40;;;;;;;0.20;0.20;;;;;;;17.39;61.95;97284.81;4975932;28;20592;-80
2023/10/30 10:30:06;;;;;;;0.20;0.20;;;;;;;17.39;61.85;97282.13;4971186;28;20713;-80
2023/10/30 10:32:32;;;;;;;0.20;0.20;;;;;;;17.38;61.03;97286.63;4975588;28;20061;-83
2023/10/30 10:35:02;;;;;;;0.20;0.20;;;;;;;16.56;63.35;97282.84;4989743;28;20034;-81
2023/10/30 10:37:28;;;;;;;0.22;0.22;;;;;;;16.73;62.63;97278.06;4977033;28;20477;-81
2023/10/30 10:39:54;;;;;;;0.20;0.20;;;;;;;16.84;62.30;97269.78;4975983;28;20458;-82
2023/10/30 10:42:24;;;;;;;0.20;0.20;;;;;;;16.53;63.29;97264.94;4978225;28;20129;-81
2023/10/30 10:44:51;;;;;;;0.20;0.20;;;;;;;16.38;64.25;97241.88;4992080;28;20050;-81
2023/10/30 10:47:18;;;;;;;0.20;0.20;;;;;;;16.49;63.78;97251.56;4977344;28;20030;-81
2023/10/30 10:49:44;;;;;;;0.20;0.20;;;;;;;16.53;64.48;97248.78;4974941;28;20113;-80
2023/10/30 10:52:12;;;;;;;0.20;0.20;;;;;;;16.31;64.75;97240.19;4974250;28;20157;-80
2023/10/30 10:54:53;;;;;;;0.25;0.25;;;;;;;16.23;64.37;97234.06;4971464;28;20547;-80
2023/10/30 10:57:20;;;;;;;0.20;0.20;;;;;;;15.93;65.52;97218.44;4972415;28;20555;-80
2023/10/30 10:59:53;;;;;;;0.30;0.30;;;;;;;15.98;66.14;97212.06;4971866;28;20035;-80
2023/10/30 11:02:26;;;;;;;0.30;0.30;;;;;;;15.92;65.11;97209.47;4970047;28;20079;-81
2023/10/30 11:04:52;;;;;;;0.30;0.30;;;;;;;15.72;66.70;97211.59;4973303;28;20082;-81
2023/10/30 11:07:37;;;;;;;0.30;0.30;;;;;;;15.69;65.92;97201.78;4974031;28;20050;-81
2023/10/30 11:10:13;;;;;;;0.30;0.30;;;;;;;15.43;66.76;97199.47;4968364;28;20067;-80
2023/10/30 11:13:08;;;;;;;0.30;0.30;;;;;;;15.58;67.50;97201.91;4971851;28;20109;-82
2023/10/30 11:15:45;;;;;;;0.30;0.30;;;;;;;15.61;67.31;97196.47;4973246;28;20045;-81
2023/10/30 11:18:15;;;;;;;0.30;0.30;;;;;;;15.67;65.78;97189.28;4971045;28;20030;-81
2023/10/30 11:20:42;;;;;;;0.30;0.30;;;;;;;15.99;65.79;97199.50;4973229;28;20031;-81
2023/10/30 11:23:09;;;;;;;0.30;0.30;;;;;;;16.04;66.49;97184.16;4974468;28;20101;-80
2023/10/30 11:25:41;;;;;;;0.30;0.30;;;;;;;15.72;67.10;97184.72;4972887;28;20038;-81
2023/10/30 11:28:07;;;;;;;0.30;0.30;;;;;;;15.82;65.17;97178.28;4973051;28;20042;-81
2023/10/30 11:30:41;;;;;;;0.30;0.30;;;;;;;15.92;65.38;97177.19;4986103;28;20454;-80
2023/10/30 11:33:24;;;;;;;0.30;0.30;;;;;;;15.74;64.19;97174.81;4986075;28;20046;-79